Terminal Aerodrome Forecast
Issued by NWS

Current Version | Previous Version | Text Only | Print | Product List | Glossary On
Versions: 1 2 3 4 5 6 7 8 9 10 11 12 13 14 15 16 17 18 19 20 21 22 23 24 25 26 27 28 29 30 31
000
FTUS46 KSEW 011120
TAFSEA
TAF
KSEA 011120Z 0112/0218 12004KT P6SM FEW025 SCT040 BKN070
      TEMPO 0112/0116 -SHRA SCT025 BKN040 OVC070
     FM011600 17008KT P6SM SCT025 OVC050
     FM011900 19012KT P6SM -SHRA SCT025 OVC050
     FM020100 16006KT P6SM -SHRA BKN050 OVC090
     FM020500 14003KT P6SM SCT050 BKN090=

USA.gov is the U.S. government's official web portal to all federal, state and local government web resources and services.